Time;durP1;ratioP1;P1;durP2;ratioP2;P2;SDS_P1;SDS_P2;PMS_P1;PMS_P2;Temp;Humidity;BMP_temperature;BMP_pressure;BME280_temperature;BME280_humidity;BME280_pressure;Samples;Min_cycle;Max_cycle;Signal;HPM_P1;HPM_P2
2023/11/28 00:00:28;;;;;;;5.85;4.82;;;;;;;-0.64;100.00;96561.78;5065860;28;20042;-83
2023/11/28 00:02:53;;;;;;;5.30;4.03;;;;;;;-0.95;100.00;96520.31;5066268;28;20098;-83
2023/11/28 00:05:18;;;;;;;4.63;4.13;;;;;;;-0.30;100.00;96563.44;5065498;28;20392;-84
2023/11/28 00:07:44;;;;;;;4.72;4.25;;;;;;;-0.53;100.00;96560.94;5048140;28;20052;-84
2023/11/28 00:10:09;;;;;;;5.57;4.18;;;;;;;-0.69;99.65;96564.28;5049577;28;20040;-84
2023/11/28 00:12:35;;;;;;;5.22;4.70;;;;;;;-0.76;100.00;96551.31;5063183;28;20522;-84
2023/11/28 00:15:00;;;;;;;6.95;5.05;;;;;;;-0.62;100.00;96567.56;5067773;28;20058;-83
2023/11/28 00:17:26;;;;;;;7.13;5.32;;;;;;;-0.55;100.00;96570.84;5050136;28;20087;-84
2023/11/28 00:19:52;;;;;;;5.85;4.38;;;;;;;-0.25;100.00;96558.28;5061329;28;21606;-84
2023/11/28 00:22:17;;;;;;;7.20;4.97;;;;;;;-0.38;100.00;96574.31;5063309;28;20044;-84
2023/11/28 00:24:42;;;;;;;7.65;5.55;;;;;;;-0.79;100.00;96572.72;5066065;28;20039;-83
2023/11/28 00:27:08;;;;;;;9.38;5.65;;;;;;;-0.75;100.00;96573.09;5034893;28;20495;-84
2023/11/28 00:29:34;;;;;;;7.28;5.35;;;;;;;-0.76;100.00;96571.47;5069759;28;20031;-83
2023/11/28 00:32:00;;;;;;;7.40;4.88;;;;;;;-1.27;100.00;96563.63;5065389;28;20103;-83
2023/11/28 00:34:26;;;;;;;7.70;5.53;;;;;;;-0.77;100.00;96554.19;5056597;28;20040;-84
2023/11/28 00:36:52;;;;;;;8.80;5.55;;;;;;;-1.13;100.00;96565.78;5062090;28;20034;-83
2023/11/28 00:39:18;;;;;;;8.18;6.30;;;;;;;-0.50;100.00;96562.28;5051900;28;20036;-84
2023/11/28 00:41:44;;;;;;;7.95;5.00;;;;;;;-0.67;100.00;96577.94;5062960;28;20102;-84
2023/11/28 00:44:09;;;;;;;7.68;4.97;;;;;;;0.07;100.00;96576.91;5062249;28;20039;-84
2023/11/28 00:46:40;;;;;;;8.35;6.30;;;;;;;-0.22;98.20;96564.88;5067586;28;20028;-84
2023/11/28 00:49:05;;;;;;;7.25;5.53;;;;;;;-0.91;99.83;96561.50;5051855;28;20067;-83
2023/11/28 00:51:31;;;;;;;7.38;5.47;;;;;;;-0.93;100.00;96568.00;5067655;28;20492;-84
2023/11/28 00:53:56;;;;;;;8.18;6.47;;;;;;;-0.94;100.00;96572.44;5065533;28;20025;-84
2023/11/28 00:56:21;;;;;;;8.50;6.00;;;;;;;-0.40;100.00;96578.19;5066834;28;20028;-84
2023/11/28 00:58:48;;;;;;;8.77;5.85;;;;;;;-0.75;100.00;96573.09;5066061;28;20025;-84
2023/11/28 01:01:14;;;;;;;7.00;5.32;;;;;;;-0.90;100.00;96581.44;5062354;28;20029;-83
2023/11/28 01:03:39;;;;;;;8.18;5.28;;;;;;;-0.73;100.00;96581.50;5067835;28;20486;-84
2023/11/28 01:06:07;;;;;;;5.63;4.43;;;;;;;-0.80;100.00;96571.16;5067833;28;20097;-83
2023/11/28 01:08:33;;;;;;;6.03;4.95;;;;;;;-0.63;100.00;96586.91;5065388;28;20020;-84
2023/11/28 01:10:59;;;;;;;5.22;4.30;;;;;;;-0.77;100.00;96593.47;5064397;28;20500;-84
2023/11/28 01:13:24;;;;;;;5.88;4.50;;;;;;;-0.84;100.00;96585.75;5065543;28;20026;-83
2023/11/28 01:15:50;;;;;;;5.25;4.22;;;;;;;-0.65;100.00;96596.84;5064379;28;20047;-84
2023/11/28 01:18:15;;;;;;;5.30;3.58;;;;;;;-0.58;100.00;96594.88;5047265;28;20051;-83
2023/11/28 01:20:43;;;;;;;5.63;4.32;;;;;;;-0.97;100.00;96591.25;5063572;28;20099;-83
2023/11/28 01:23:09;;;;;;;4.93;4.00;;;;;;;-0.94;100.00;96590.75;5066897;28;20073;-83
2023/11/28 01:25:34;;;;;;;5.60;3.95;;;;;;;-0.87;100.00;96607.16;5049835;28;20062;-83
2023/11/28 01:28:00;;;;;;;5.55;4.60;;;;;;;-0.91;100.00;96589.50;5049532;28;20418;-83
2023/11/28 01:30:25;;;;;;;4.95;3.70;;;;;;;-0.96;100.00;96603.28;5050514;28;20501;-83
2023/11/28 01:32:50;;;;;;;4.82;4.00;;;;;;;-1.11;100.00;96602.97;5051549;28;20051;-83
2023/11/28 01:35:16;;;;;;;5.75;3.78;;;;;;;-0.76;100.00;96608.94;5067419;28;20017;-83
2023/11/28 01:37:41;;;;;;;5.35;3.75;;;;;;;-0.62;100.00;96596.38;5050625;28;20037;-84
2023/11/28 01:40:07;;;;;;;5.95;4.55;;;;;;;-0.96;100.00;96620.84;5048078;28;20033;-84
2023/11/28 01:42:33;;;;;;;5.25;3.53;;;;;;;-0.72;100.00;96614.50;5066704;28;20433;-83
2023/11/28 01:44:58;;;;;;;4.85;4.18;;;;;;;-1.07;100.00;96624.25;5068726;28;20480;-83
2023/11/28 01:47:24;;;;;;;7.07;3.97;;;;;;;-0.79;100.00;96627.72;5045721;28;20167;-83
2023/11/28 01:49:49;;;;;;;5.20;4.47;;;;;;;-0.82;100.00;96620.34;5067049;28;20028;-83
2023/11/28 01:52:15;;;;;;;5.00;3.83;;;;;;;-0.41;100.00;96631.59;5026639;28;20036;-82
2023/11/28 01:54:42;;;;;;;5.70;4.25;;;;;;;-0.79;100.00;96625.09;5062846;28;20108;-83
2023/11/28 01:57:09;;;;;;;6.07;4.32;;;;;;;-0.98;100.00;96615.00;5043114;28;20032;-84
2023/11/28 01:59:35;;;;;;;6.10;4.35;;;;;;;-1.18;100.00;96632.91;5063975;28;20028;-83
2023/11/28 02:02:02;;;;;;;4.45;3.85;;;;;;;-0.79;100.00;96635.56;5065346;28;20035;-83
2023/11/28 02:04:27;;;;;;;4.35;3.92;;;;;;;-0.87;100.00;96637.75;5034809;28;20412;-83
2023/11/28 02:06:52;;;;;;;4.93;4.32;;;;;;;-0.66;100.00;96626.69;5064665;28;20119;-83
2023/11/28 02:09:18;;;;;;;7.25;5.10;;;;;;;-0.73;100.00;96633.88;5084677;28;20029;-83
2023/11/28 02:11:43;;;;;;;5.25;4.70;;;;;;;-0.86;100.00;96631.50;5068789;28;20701;-83
2023/11/28 02:14:10;;;;;;;6.03;5.32;;;;;;;-1.04;100.00;96648.16;5032502;28;20040;-82
2023/11/28 02:16:35;;;;;;;6.88;5.35;;;;;;;-0.58;100.00;96631.56;5046701;28;20075;-83
2023/11/28 02:19:02;;;;;;;6.45;5.47;;;;;;;-0.84;99.95;96627.63;5047947;28;20056;-83
2023/11/28 02:21:27;;;;;;;7.85;5.95;;;;;;;-1.29;100.00;96634.53;5028915;28;20035;-83
2023/11/28 02:23:53;;;;;;;7.25;6.30;;;;;;;-1.70;100.00;96631.97;5051515;28;20443;-83
2023/11/28 02:26:23;;;;;;;8.45;6.75;;;;;;;-1.02;100.00;96655.75;5068641;28;20033;-83
2023/11/28 02:28:49;;;;;;;8.10;5.95;;;;;;;-0.82;100.00;96646.53;5067654;28;20025;-83
2023/11/28 02:31:14;;;;;;;9.55;6.32;;;;;;;-0.46;100.00;96645.41;5062845;28;20117;-83
2023/11/28 02:33:39;;;;;;;9.85;7.97;;;;;;;-1.04;100.00;96647.34;5070025;28;20511;-83
2023/11/28 02:36:05;;;;;;;8.77;6.85;;;;;;;-1.34;100.00;96657.94;5072534;28;20032;-82
2023/11/28 02:38:31;;;;;;;8.85;7.72;;;;;;;-1.13;100.00;96654.75;5068733;28;20033;-82
2023/11/28 02:40:56;;;;;;;9.95;7.60;;;;;;;-1.36;100.00;96649.53;5067525;28;20101;-82
2023/11/28 02:43:21;;;;;;;13.15;8.95;;;;;;;-1.42;100.00;96647.03;5071070;28;20055;-83
2023/11/28 02:45:47;;;;;;;9.77;8.15;;;;;;;-1.47;100.00;96659.97;5048602;28;20166;-82
2023/11/28 02:48:12;;;;;;;11.10;8.27;;;;;;;-1.37;100.00;96652.34;5053623;28;20054;-83
2023/11/28 02:50:38;;;;;;;12.00;8.55;;;;;;;-1.32;100.00;96665.56;5067651;28;20020;-83
2023/11/28 02:53:04;;;;;;;12.70;8.52;;;;;;;-1.34;100.00;96663.19;5064155;28;20399;-83
2023/11/28 02:55:29;;;;;;;12.93;8.55;;;;;;;-1.31;100.00;96670.56;5065396;28;20054;-83
2023/11/28 02:57:56;;;;;;;11.32;8.18;;;;;;;-1.53;100.00;96659.06;5064066;28;20048;-82
2023/11/28 03:00:22;;;;;;;12.07;8.90;;;;;;;-1.50;100.00;96658.59;5070337;28;20036;-82
2023/11/28 03:02:47;;;;;;;11.90;8.27;;;;;;;-1.37;100.00;96663.63;5067519;28;20017;-82
2023/11/28 03:05:13;;;;;;;12.48;9.25;;;;;;;-1.10;100.00;96656.91;5050423;28;20045;-82
2023/11/28 03:07:38;;;;;;;12.60;8.95;;;;;;;-1.68;100.00;96664.72;5025673;28;20060;-82
2023/11/28 03:10:04;;;;;;;12.45;8.38;;;;;;;-1.68;100.00;96669.94;5068057;28;20076;-81
2023/11/28 03:12:30;;;;;;;11.23;8.57;;;;;;;-1.43;100.00;96671.56;5066264;28;20395;-82
2023/11/28 03:14:55;;;;;;;9.35;7.43;;;;;;;-1.44;100.00;96667.38;5051703;28;20024;-82
2023/11/28 03:17:20;;;;;;;10.95;7.60;;;;;;;-1.12;100.00;96679.91;5068094;28;20103;-82
2023/11/28 03:19:45;;;;;;;12.25;8.68;;;;;;;-1.17;100.00;96684.22;5065962;28;20055;-82
2023/11/28 03:22:11;;;;;;;10.95;8.07;;;;;;;-1.55;100.00;96682.81;5067101;28;20040;-82
2023/11/28 03:24:36;;;;;;;9.95;7.00;;;;;;;-0.80;100.00;96677.72;5069665;28;20036;-82
2023/11/28 03:27:02;;;;;;;9.52;6.75;;;;;;;-1.07;100.00;96684.47;5030824;28;20040;-82
2023/11/28 03:29:28;;;;;;;11.25;8.13;;;;;;;-1.79;100.00;96662.09;5066411;28;20110;-81
2023/11/28 03:31:53;;;;;;;10.75;7.80;;;;;;;-1.61;100.00;96682.91;5068604;28;20043;-81
2023/11/28 03:34:19;;;;;;;10.77;8.30;;;;;;;-1.39;100.00;96680.56;5069407;28;20028;-82
2023/11/28 03:36:44;;;;;;;11.05;8.98;;;;;;;-1.32;100.00;96691.72;5029949;28;20017;-81
2023/11/28 03:39:10;;;;;;;13.10;9.80;;;;;;;-0.97;100.00;96700.38;5033858;28;20126;-82
2023/11/28 03:41:35;;;;;;;12.35;8.95;;;;;;;-1.10;100.00;96700.63;5070628;28;20024;-82
2023/11/28 03:44:01;;;;;;;13.50;10.25;;;;;;;-1.36;100.00;96706.28;5069055;28;20040;-83
2023/11/28 03:46:26;;;;;;;13.95;9.75;;;;;;;-1.32;100.00;96712.66;5048352;28;20033;-82
2023/11/28 03:48:52;;;;;;;12.50;9.52;;;;;;;-1.15;100.00;96708.34;5069890;28;20032;-82
2023/11/28 03:51:18;;;;;;;13.63;7.63;;;;;;;-1.72;100.00;96718.47;5065025;28;20021;-81
2023/11/28 03:53:44;;;;;;;14.15;10.40;;;;;;;-1.15;100.00;96713.56;5065908;28;20055;-82
2023/11/28 03:56:10;;;;;;;13.68;10.00;;;;;;;-1.04;100.00;96718.03;5067359;28;20060;-82
2023/11/28 03:58:35;;;;;;;13.73;10.27;;;;;;;-1.00;100.00;96724.38;5064240;28;20029;-82
2023/11/28 04:01:02;;;;;;;11.95;9.65;;;;;;;-1.00;100.00;96722.56;5051578;28;20094;-82
2023/11/28 04:03:28;;;;;;;12.50;9.85;;;;;;;-0.99;99.58;96731.22;5064169;28;20111;-82
2023/11/28 04:05:55;;;;;;;11.98;9.40;;;;;;;-1.16;98.70;96728.50;5051617;28;20468;-82
2023/11/28 04:08:20;;;;;;;11.90;9.27;;;;;;;-1.72;98.70;96721.09;5049719;28;20047;-82
2023/11/28 04:10:45;;;;;;;14.80;10.88;;;;;;;-1.33;100.00;96740.63;5047217;28;20060;-82
2023/11/28 04:13:11;;;;;;;16.33;10.07;;;;;;;-1.81;99.85;96740.72;5063703;28;20025;-82
2023/11/28 04:15:38;;;;;;;13.50;9.80;;;;;;;-1.08;100.00;96749.09;5053247;28;20070;-82
2023/11/28 04:18:04;;;;;;;14.52;10.13;;;;;;;-1.43;100.00;96750.06;5048758;28;20374;-83
2023/11/28 04:20:30;;;;;;;13.45;10.40;;;;;;;-1.57;100.00;96760.72;5047518;28;20031;-82
2023/11/28 04:22:55;;;;;;;14.43;9.80;;;;;;;-1.17;100.00;96749.66;5062976;28;20040;-82
2023/11/28 04:25:22;;;;;;;13.77;10.50;;;;;;;-1.25;100.00;96758.63;5064589;28;20090;-83
2023/11/28 04:27:48;;;;;;;15.65;10.70;;;;;;;-0.79;100.00;96765.72;5060874;28;20036;-82
2023/11/28 04:30:13;;;;;;;13.90;10.43;;;;;;;-1.50;99.45;96763.22;5066604;28;20033;-81
2023/11/28 04:32:39;;;;;;;14.23;10.07;;;;;;;-1.53;99.47;96761.06;5064720;28;20451;-82
2023/11/28 04:35:05;;;;;;;16.73;10.98;;;;;;;-0.74;99.05;96765.06;5064902;28;20032;-83
2023/11/28 04:37:30;;;;;;;14.40;9.55;;;;;;;-0.95;98.75;96769.81;5067374;28;20024;-83
2023/11/28 04:39:56;;;;;;;12.23;8.45;;;;;;;-1.36;99.05;96763.84;5050844;28;20370;-83
2023/11/28 04:42:22;;;;;;;14.25;8.80;;;;;;;-1.51;99.09;96783.34;5062161;28;20029;-83
2023/11/28 04:44:47;;;;;;;10.35;7.95;;;;;;;-1.14;99.71;96772.75;5063882;28;20408;-83
2023/11/28 04:47:12;;;;;;;12.20;8.82;;;;;;;-1.26;98.45;96777.16;5048219;28;20048;-83
2023/11/28 04:49:38;;;;;;;12.73;9.57;;;;;;;-1.47;98.14;96770.63;5036157;28;20032;-83
2023/11/28 04:52:03;;;;;;;10.60;7.88;;;;;;;-1.87;98.82;96783.44;5034572;28;20047;-83
2023/11/28 04:54:29;;;;;;;12.00;8.55;;;;;;;-1.16;99.11;96766.94;5068574;28;20036;-83
2023/11/28 04:56:55;;;;;;;11.57;8.50;;;;;;;-1.70;98.43;96796.69;5049138;28;20085;-83
2023/11/28 04:59:20;;;;;;;13.07;8.65;;;;;;;-1.10;99.68;96769.47;5066015;28;20215;-83
2023/11/28 05:01:46;;;;;;;14.23;9.02;;;;;;;-1.56;99.33;96805.97;5063328;28;20468;-83
2023/11/28 05:04:15;;;;;;;12.27;8.68;;;;;;;-1.42;98.17;96788.28;5062004;28;20036;-83
2023/11/28 05:06:41;;;;;;;12.48;8.57;;;;;;;-1.84;98.83;96803.94;5060387;28;20032;-83
2023/11/28 05:09:07;;;;;;;12.07;8.88;;;;;;;-1.86;99.18;96813.00;5064621;28;20054;-82
2023/11/28 05:11:33;;;;;;;12.30;9.30;;;;;;;-1.74;98.67;96806.81;5064635;28;20025;-84
2023/11/28 05:13:59;;;;;;;13.50;9.32;;;;;;;-1.29;98.50;96814.25;5037240;28;20048;-83
2023/11/28 05:16:24;;;;;;;12.20;8.68;;;;;;;-1.95;98.60;96815.13;5061341;28;20029;-82
2023/11/28 05:18:50;;;;;;;11.95;9.43;;;;;;;-2.05;99.07;96830.50;5045135;28;20051;-82
2023/11/28 05:21:15;;;;;;;14.10;8.93;;;;;;;-2.11;99.89;96831.38;5046098;28;20024;-83
2023/11/28 05:23:41;;;;;;;16.77;10.00;;;;;;;-1.78;99.96;96833.59;5048087;28;20096;-83
2023/11/28 05:26:06;;;;;;;14.73;10.20;;;;;;;-2.06;99.22;96833.34;5046977;28;20597;-83
2023/11/28 05:28:32;;;;;;;13.68;10.07;;;;;;;-1.93;99.00;96843.66;5059870;28;20445;-82
2023/11/28 05:30:57;;;;;;;14.07;9.43;;;;;;;-1.74;99.93;96850.44;5043676;28;20678;-82
2023/11/28 05:33:23;;;;;;;14.13;9.57;;;;;;;-1.84;98.72;96848.38;5061528;28;20040;-82
2023/11/28 05:35:48;;;;;;;16.98;9.60;;;;;;;-1.37;98.06;96838.09;5039671;28;20032;-83
2023/11/28 05:38:14;;;;;;;14.02;9.57;;;;;;;-1.24;97.75;96861.47;5032752;28;20032;-83
2023/11/28 05:40:39;;;;;;;17.25;10.63;;;;;;;-0.88;96.73;96854.31;5047690;28;20102;-83
2023/11/28 05:43:05;;;;;;;15.07;9.57;;;;;;;-1.34;95.61;96859.41;5058784;28;20035;-82
2023/11/28 05:45:30;;;;;;;11.65;8.82;;;;;;;-1.92;96.77;96847.88;5056002;28;20589;-83
2023/11/28 05:47:55;;;;;;;13.20;9.68;;;;;;;-0.86;96.23;96864.53;5032063;28;20036;-84
2023/11/28 05:50:22;;;;;;;13.32;9.25;;;;;;;-1.68;95.91;96870.47;5052290;28;20060;-84
2023/11/28 05:52:52;;;;;;;13.27;8.82;;;;;;;-1.88;96.39;96875.94;5065168;28;20085;-84
2023/11/28 05:55:21;;;;;;;17.52;9.07;;;;;;;-2.08;97.42;96870.16;5060835;28;20055;-81
2023/11/28 05:57:48;;;;;;;11.57;9.25;;;;;;;-1.68;98.58;96883.56;5048958;28;20059;-84
2023/11/28 06:00:14;;;;;;;11.50;7.95;;;;;;;-2.19;97.73;96883.13;5063813;28;20032;-84
2023/11/28 06:02:40;;;;;;;14.68;9.98;;;;;;;-1.27;97.54;96899.38;5070334;28;20109;-84
2023/11/28 06:05:06;;;;;;;13.75;9.30;;;;;;;-1.54;96.42;96890.25;5068914;28;20439;-84
2023/11/28 06:07:32;;;;;;;9.75;7.85;;;;;;;-1.66;97.41;96884.94;5068608;28;20109;-84
2023/11/28 06:09:58;;;;;;;14.98;9.50;;;;;;;-1.92;96.98;96908.00;5052367;28;20078;-83
2023/11/28 06:12:24;;;;;;;14.48;8.95;;;;;;;-1.73;97.38;96913.00;5074930;28;20028;-83
2023/11/28 06:14:49;;;;;;;14.68;9.35;;;;;;;-1.92;97.52;96915.84;5065507;28;20017;-83
2023/11/28 06:17:15;;;;;;;13.75;9.32;;;;;;;-1.76;97.56;96921.28;5056457;28;20082;-84
2023/11/28 06:19:40;;;;;;;14.43;9.43;;;;;;;-1.85;97.35;96919.16;5052325;28;20055;-84
2023/11/28 06:22:06;;;;;;;12.55;9.20;;;;;;;-1.43;97.02;96927.94;5035374;28;20071;-84
2023/11/28 06:24:31;;;;;;;11.68;8.40;;;;;;;-1.79;96.55;96932.16;5054171;28;20696;-83
2023/11/28 06:26:56;;;;;;;11.88;9.07;;;;;;;-1.42;97.61;96934.78;5048170;28;20028;-83
2023/11/28 06:29:22;;;;;;;12.27;8.25;;;;;;;-1.90;95.90;96938.09;5069997;28;20119;-83
2023/11/28 06:31:48;;;;;;;12.55;8.68;;;;;;;-2.10;96.79;96934.09;5069044;28;20066;-83
2023/11/28 06:34:14;;;;;;;10.63;8.43;;;;;;;-1.70;97.44;96946.53;5071963;28;20040;-83
2023/11/28 06:36:39;;;;;;;13.00;8.93;;;;;;;-1.57;96.78;96956.06;5048593;28;20102;-84
2023/11/28 06:39:04;;;;;;;10.57;8.15;;;;;;;-1.40;96.12;96961.50;5038398;28;20381;-83
2023/11/28 06:41:30;;;;;;;10.95;8.50;;;;;;;-2.07;95.29;96978.06;5073934;28;20040;-84
2023/11/28 06:43:56;;;;;;;11.07;9.05;;;;;;;-1.72;96.70;96963.47;5070597;28;20104;-83
2023/11/28 06:46:21;;;;;;;12.48;8.68;;;;;;;-1.55;97.78;96964.47;5049527;28;20048;-83
2023/11/28 06:48:48;;;;;;;16.75;9.95;;;;;;;-1.61;96.87;96979.25;5073506;28;20036;-84
2023/11/28 06:51:14;;;;;;;11.77;8.60;;;;;;;-1.78;97.36;96970.38;5055177;28;22031;-83
2023/11/28 06:53:39;;;;;;;12.82;8.70;;;;;;;-1.92;97.32;96991.63;5068095;28;20031;-84
2023/11/28 06:56:05;;;;;;;12.90;9.05;;;;;;;-2.19;97.59;96975.38;5072681;28;20112;-83
2023/11/28 06:58:30;;;;;;;10.93;8.35;;;;;;;-1.48;96.94;96995.78;5056586;28;20036;-84
2023/11/28 07:00:56;;;;;;;14.63;8.75;;;;;;;-2.07;97.13;97012.03;5073651;28;20036;-83
2023/11/28 07:03:22;;;;;;;12.25;8.73;;;;;;;-1.56;97.53;97009.97;5055927;28;20030;-83
2023/11/28 07:05:48;;;;;;;14.73;9.35;;;;;;;-2.15;97.26;97015.75;5040004;28;20124;-83
2023/11/28 07:08:14;;;;;;;14.25;9.32;;;;;;;-1.70;97.83;97016.34;5055624;28;20052;-83
2023/11/28 07:10:39;;;;;;;13.93;8.82;;;;;;;-1.59;97.18;97026.91;5071001;28;20537;-84
2023/11/28 07:13:05;;;;;;;13.88;8.10;;;;;;;-1.39;95.49;97025.88;5071009;28;20028;-84
2023/11/28 07:15:30;;;;;;;11.15;8.73;;;;;;;-2.25;94.70;96996.34;5073468;28;20021;-84
2023/11/28 07:17:56;;;;;;;12.45;8.25;;;;;;;-1.38;95.70;97030.13;5070660;28;20056;-83
2023/11/28 07:20:21;;;;;;;13.48;9.15;;;;;;;-1.46;94.24;97046.88;5066843;28;20024;-83
2023/11/28 07:22:46;;;;;;;10.57;7.55;;;;;;;-1.58;95.19;97054.66;5064175;28;20029;-84
2023/11/28 07:25:14;;;;;;;10.35;7.10;;;;;;;-1.31;95.31;97063.03;5073018;28;20065;-83
2023/11/28 07:27:39;;;;;;;11.45;7.53;;;;;;;-1.16;94.61;97067.91;5054305;28;20040;-84
2023/11/28 07:30:06;;;;;;;8.15;6.63;;;;;;;-1.61;93.71;97072.59;5073348;28;20043;-84
2023/11/28 07:32:31;;;;;;;9.98;6.90;;;;;;;-1.54;94.51;97070.72;5071823;28;20033;-84
2023/11/28 07:34:57;;;;;;;10.52;7.60;;;;;;;-1.38;93.46;97085.06;5073478;28;20383;-83
2023/11/28 07:37:22;;;;;;;11.25;6.97;;;;;;;-1.33;95.33;97078.13;5050438;28;20408;-84
2023/11/28 07:39:48;;;;;;;9.63;6.82;;;;;;;-1.58;94.31;97078.19;5071028;28;20422;-84
2023/11/28 07:42:16;;;;;;;8.55;6.18;;;;;;;-2.25;95.06;97069.47;5069673;28;20056;-83
2023/11/28 07:44:41;;;;;;;7.57;5.90;;;;;;;-1.30;94.91;97095.22;5037830;28;20029;-83
2023/11/28 07:47:08;;;;;;;11.40;7.63;;;;;;;-1.91;94.43;97095.16;5066630;28;20040;-83
2023/11/28 07:49:33;;;;;;;8.98;6.93;;;;;;;-2.36;93.81;97104.94;5071778;28;20124;-83
2023/11/28 07:51:58;;;;;;;10.18;7.10;;;;;;;-1.91;95.90;97095.97;5072480;28;20520;-83
2023/11/28 07:54:24;;;;;;;11.32;7.03;;;;;;;-1.83;95.79;97111.38;5071286;28;20097;-83
2023/11/28 07:56:49;;;;;;;10.57;6.93;;;;;;;-1.75;95.42;97107.72;5069693;28;20422;-84
2023/11/28 07:59:14;;;;;;;13.07;8.27;;;;;;;-2.01;94.11;97124.38;5063719;28;20050;-83
2023/11/28 08:01:40;;;;;;;10.05;6.75;;;;;;;-2.33;94.38;97128.81;5045722;28;20087;-83
2023/11/28 08:04:05;;;;;;;9.15;6.60;;;;;;;-1.64;96.09;97133.97;5055539;28;20131;-83
2023/11/28 08:06:31;;;;;;;16.52;7.68;;;;;;;-1.66;94.30;97125.53;5055910;28;20029;-83
2023/11/28 08:08:56;;;;;;;11.38;6.43;;;;;;;-1.96;94.68;97124.56;5060230;28;20098;-83
2023/11/28 08:11:21;;;;;;;12.13;7.65;;;;;;;-1.57;94.28;97152.22;5034867;28;20559;-84
2023/11/28 08:13:48;;;;;;;14.68;8.07;;;;;;;-1.93;91.67;97155.50;5064156;28;20029;-84
2023/11/28 08:16:13;;;;;;;12.50;7.22;;;;;;;-1.70;93.08;97160.97;5064617;28;20407;-84
2023/11/28 08:18:39;;;;;;;14.88;8.82;;;;;;;-2.16;93.38;97162.28;5061755;28;20036;-84
2023/11/28 08:21:05;;;;;;;17.10;10.07;;;;;;;-1.88;93.93;97150.44;5056034;28;20033;-83
2023/11/28 08:23:32;;;;;;;14.18;9.38;;;;;;;-1.60;92.95;97186.66;5071806;28;20033;-83
2023/11/28 08:25:58;;;;;;;10.27;6.07;;;;;;;-1.79;91.01;97177.91;5065526;28;20632;-83
2023/11/28 08:28:24;;;;;;;8.45;6.35;;;;;;;-1.92;92.61;97172.00;5071606;28;20032;-83
2023/11/28 08:30:50;;;;;;;10.32;6.38;;;;;;;-1.52;94.02;97183.78;5063002;28;20053;-83
2023/11/28 08:33:16;;;;;;;9.55;6.07;;;;;;;-1.25;92.40;97200.06;5071597;28;20032;-84
2023/11/28 08:35:41;;;;;;;10.38;6.32;;;;;;;-1.78;90.54;97197.03;5050119;28;20028;-83
2023/11/28 08:38:07;;;;;;;13.45;8.77;;;;;;;-2.17;92.39;97211.13;5071765;28;20049;-83
2023/11/28 08:40:32;;;;;;;10.48;6.88;;;;;;;-2.35;92.63;97216.22;5069082;28;20060;-83
2023/11/28 08:42:58;;;;;;;11.88;7.45;;;;;;;-1.64;93.12;97199.34;5048027;28;20036;-84
2023/11/28 08:45:23;;;;;;;12.85;7.75;;;;;;;-1.15;92.90;97219.50;5069560;28;20033;-83
2023/11/28 08:47:48;;;;;;;10.82;7.40;;;;;;;-1.33;88.50;97226.50;5069261;28;20081;-83
2023/11/28 08:50:14;;;;;;;10.02;6.95;;;;;;;-1.91;90.54;97231.09;5050527;28;20039;-83
2023/11/28 08:52:39;;;;;;;9.23;5.18;;;;;;;-1.40;91.93;97234.41;5065377;28;20056;-83
2023/11/28 08:55:05;;;;;;;7.57;6.47;;;;;;;-1.78;90.46;97244.09;5047806;28;20029;-83
2023/11/28 08:57:34;;;;;;;7.65;5.10;;;;;;;-1.68;90.54;97253.06;5068139;28;20024;-83
2023/11/28 09:00:04;;;;;;;9.52;5.25;;;;;;;-1.82;92.05;97251.56;5055043;28;20081;-82
2023/11/28 09:02:29;;;;;;;10.45;6.20;;;;;;;-1.30;92.06;97254.84;5046572;28;20127;-84
2023/11/28 09:04:55;;;;;;;9.00;5.90;;;;;;;-0.47;89.91;97253.50;5067699;28;20112;-84
2023/11/28 09:07:21;;;;;;;8.48;5.38;;;;;;;0.09;88.94;97253.28;5068128;28;20067;-84
2023/11/28 09:09:46;;;;;;;7.55;5.32;;;;;;;-1.08;87.35;97259.50;5050435;28;20059;-84
2023/11/28 09:12:15;;;;;;;10.48;6.28;;;;;;;-0.87;88.42;97274.84;5049386;28;20041;-83
2023/11/28 09:14:40;;;;;;;9.68;5.72;;;;;;;-0.85;88.42;97279.84;5063460;28;20040;-83
2023/11/28 09:17:05;;;;;;;8.23;5.70;;;;;;;-0.78;88.23;97267.50;5051939;28;20020;-83
2023/11/28 09:19:32;;;;;;;9.90;6.03;;;;;;;-0.39;88.35;97279.41;5051011;28;20025;-83
2023/11/28 09:21:57;;;;;;;9.40;6.40;;;;;;;-1.04;86.52;97284.25;5049660;28;20036;-84
2023/11/28 09:24:23;;;;;;;8.35;5.43;;;;;;;-0.98;89.46;97293.06;5061318;28;20027;-84
2023/11/28 09:26:48;;;;;;;9.82;5.60;;;;;;;-0.88;89.58;97291.59;5052346;28;20039;-84
2023/11/28 09:29:17;;;;;;;7.78;5.53;;;;;;;-1.66;88.71;97287.66;5036593;28;20400;-83
2023/11/28 09:31:42;;;;;;;7.78;5.35;;;;;;;-1.63;89.15;97287.25;5054691;28;20032;-84
2023/11/28 09:34:08;;;;;;;8.73;5.30;;;;;;;-2.23;89.81;97305.22;5049990;28;20025;-84
2023/11/28 09:36:33;;;;;;;8.02;5.18;;;;;;;-2.08;89.70;97305.78;5049587;28;20029;-84
2023/11/28 09:39:03;;;;;;;7.05;4.82;;;;;;;-1.66;91.38;97321.66;5065654;28;20029;-83
2023/11/28 09:41:32;;;;;;;10.38;5.28;;;;;;;-1.53;91.57;97324.22;5054891;28;20446;-84
2023/11/28 09:43:58;;;;;;;9.43;5.45;;;;;;;-1.96;90.81;97310.13;5070194;28;20025;-83
2023/11/28 09:46:25;;;;;;;8.52;6.38;;;;;;;-2.02;91.45;97289.25;5071419;28;20373;-83
2023/11/28 09:48:53;;;;;;;12.90;7.57;;;;;;;-1.81;90.22;97315.09;5062488;28;20052;-83
2023/11/28 09:51:23;;;;;;;7.50;5.35;;;;;;;-1.83;91.02;97276.09;5070718;28;20450;-83
2023/11/28 09:53:56;;;;;;;9.25;5.97;;;;;;;-1.20;91.12;97313.56;5071910;28;20385;-83
2023/11/28 09:56:22;;;;;;;7.22;5.35;;;;;;;-2.31;89.40;97325.31;5060674;28;20035;-83
2023/11/28 09:58:54;;;;;;;8.70;4.93;;;;;;;-1.98;90.80;97317.38;5070906;28;20039;-83
2023/11/28 10:01:21;;;;;;;6.85;4.68;;;;;;;-2.10;90.73;97320.84;5050706;28;20024;-83
2023/11/28 10:03:47;;;;;;;8.27;5.05;;;;;;;-2.53;90.24;97320.53;5068987;28;20056;-82
2023/11/28 10:06:17;;;;;;;9.27;6.75;;;;;;;-2.36;91.74;97308.66;5065732;28;20413;-83
2023/11/28 10:08:46;;;;;;;13.75;6.53;;;;;;;-2.10;92.60;97313.81;5062904;28;20131;-83
2023/11/28 10:11:15;;;;;;;9.77;5.57;;;;;;;-1.89;92.72;97310.91;5064358;28;20020;-83
2023/11/28 10:13:40;;;;;;;8.02;5.75;;;;;;;-1.85;92.73;97316.53;5065468;28;20077;-83
2023/11/28 10:16:07;;;;;;;10.63;6.70;;;;;;;-1.82;92.86;97303.84;5033497;28;20021;-83
2023/11/28 10:18:32;;;;;;;6.90;4.88;;;;;;;-2.12;91.15;97309.81;5047476;28;20037;-83
2023/11/28 10:20:58;;;;;;;10.02;5.60;;;;;;;-1.66;90.71;97324.28;5056314;28;20024;-83
2023/11/28 10:23:24;;;;;;;8.18;5.18;;;;;;;-2.15;91.35;97329.31;5043243;28;20033;-82
2023/11/28 10:25:50;;;;;;;7.32;4.75;;;;;;;-2.12;91.90;97338.56;5047982;28;20036;-83
2023/11/28 10:28:15;;;;;;;7.65;4.38;;;;;;;-2.81;91.06;97336.44;5046630;28;20028;-82
2023/11/28 10:30:41;;;;;;;5.75;4.50;;;;;;;-2.67;91.52;97345.06;5062600;28;20035;-83
2023/11/28 10:33:07;;;;;;;11.93;6.53;;;;;;;-2.20;91.57;97352.63;5060227;28;20592;-83
2023/11/28 10:35:43;;;;;;;9.23;6.05;;;;;;;-2.22;91.62;97370.31;5068094;28;20112;-82
2023/11/28 10:38:14;;;;;;;7.55;5.10;;;;;;;-2.32;89.65;97365.53;5060496;28;20044;-82
2023/11/28 10:40:50;;;;;;;8.43;4.97;;;;;;;-1.56;92.23;97355.22;5063610;28;20028;-82
2023/11/28 10:43:15;;;;;;;8.55;5.78;;;;;;;-1.03;90.53;97364.41;5048769;28;20028;-83
2023/11/28 10:45:45;;;;;;;12.43;5.40;;;;;;;-2.41;88.85;97365.94;5049590;28;22157;-83
2023/11/28 10:48:11;;;;;;;9.23;4.63;;;;;;;-2.12;89.19;97370.72;5056270;28;20116;-83
2023/11/28 10:50:36;;;;;;;9.10;5.65;;;;;;;-2.42;90.17;97372.16;5048907;28;20036;-83
2023/11/28 10:53:04;;;;;;;8.90;6.32;;;;;;;-2.13;89.37;97373.53;5054963;28;20028;-84
2023/11/28 10:55:37;;;;;;;11.32;6.22;;;;;;;-1.51;90.88;97379.75;5068115;28;20555;-83
2023/11/28 10:58:04;;;;;;;10.30;6.07;;;;;;;-2.40;89.02;97389.22;5068821;28;20028;-83
2023/11/28 11:00:35;;;;;;;12.30;5.10;;;;;;;-1.60;91.51;97380.19;5073549;28;20024;-83
2023/11/28 11:03:01;;;;;;;11.32;6.72;;;;;;;-1.80;91.70;97395.16;5074954;28;20036;-83
2023/11/28 11:05:29;;;;;;;7.97;6.53;;;;;;;-1.63;90.53;97391.06;5072898;28;20036;-83
2023/11/28 11:07:57;;;;;;;28.13;15.55;;;;;;;-1.55;89.35;97394.25;5088623;28;20021;-84
2023/11/28 11:10:23;;;;;;;9.40;6.22;;;;;;;-1.73;90.05;97388.91;5070326;28;20033;-83
2023/11/28 11:13:11;;;;;;;7.38;5.85;;;;;;;-1.18;89.90;97407.59;5071743;28;20055;-83
2023/11/28 11:15:48;;;;;;;10.20;6.15;;;;;;;-1.47;89.51;97414.16;5066769;28;20454;-83
2023/11/28 11:18:49;;;;;;;6.93;4.90;;;;;;;-1.70;87.47;97430.31;5071923;28;20025;-83